Time;durP1;ratioP1;P1;durP2;ratioP2;P2;SDS_P1;SDS_P2;PMS_P1;PMS_P2;Temp;Humidity;BMP_temperature;BMP_pressure;BME280_temperature;BME280_humidity;BME280_pressure;Samples;Min_cycle;Max_cycle;Signal;HPM_P1;HPM_P2
2023/01/07 00:01:02;;;;;;;;;2.00;2.00;;;;;14.23;100.00;101515.56;5069354;28;45444;-74
2023/01/07 00:03:28;;;;;;;;;1.67;1.67;;;;;14.22;100.00;101509.38;5058132;28;46758;-73
2023/01/07 00:05:58;;;;;;;;;2.00;2.00;;;;;14.24;100.00;101514.69;5052862;28;45428;-77
2023/01/07 00:08:24;;;;;;;;;3.00;2.00;;;;;14.24;100.00;101506.72;5059294;28;45303;-74
2023/01/07 00:10:49;;;;;;;;;1.00;1.00;;;;;14.23;100.00;101500.50;5071507;28;45437;-73
2023/01/07 00:13:14;;;;;;;;;1.00;1.00;;;;;14.25;100.00;101501.41;5057126;28;60877;-74
2023/01/07 00:15:40;;;;;;;;;1.00;1.00;;;;;14.20;100.00;101494.28;5058267;28;56682;-76
2023/01/07 00:18:05;;;;;;;;;1.33;1.33;;;;;14.22;100.00;101492.50;5058562;28;55213;-74
2023/01/07 00:20:30;;;;;;;;;1.00;1.00;;;;;14.19;100.00;101484.53;5058932;28;52245;-74
2023/01/07 00:22:56;;;;;;;;;3.00;1.00;;;;;14.16;100.00;101474.75;5058656;28;56711;-74
2023/01/07 00:25:21;;;;;;;;;1.00;1.00;;;;;14.16;100.00;101475.66;5058546;28;45492;-74
2023/01/07 00:27:46;;;;;;;;;1.00;1.00;;;;;14.20;100.00;101483.66;5059229;28;46972;-75
2023/01/07 00:30:12;;;;;;;;;1.00;1.00;;;;;14.16;100.00;101480.97;5061919;28;54262;-75
2023/01/07 00:32:58;;;;;;;;;1.00;1.00;;;;;14.15;100.00;101470.34;5061976;28;46237;-74
2023/01/07 00:35:24;;;;;;;;;1.00;1.00;;;;;14.12;100.00;101465.91;5058779;28;45307;-74
2023/01/07 00:37:51;;;;;;;;;1.33;1.33;;;;;14.14;100.00;101464.13;5059030;28;45330;-73
2023/01/07 00:40:16;;;;;;;;;3.00;2.00;;;;;14.13;100.00;101454.41;5059443;28;45439;-74
2023/01/07 00:42:54;;;;;;;;;4.00;2.00;;;;;14.12;100.00;101455.28;5061783;28;46315;-74
2023/01/07 00:45:20;;;;;;;;;1.00;1.00;;;;;14.12;100.00;101447.31;5060827;28;45467;-75
2023/01/07 00:47:46;;;;;;;;;2.00;2.00;;;;;14.14;100.00;101447.31;5058861;28;45474;-75
2023/01/07 00:50:11;;;;;;;;;1.00;1.00;;;;;14.14;100.00;101442.00;5057895;28;49140;-73
2023/01/07 00:52:36;;;;;;;;;1.67;1.00;;;;;14.14;100.00;101434.94;5058415;28;59060;-74
2023/01/07 00:55:02;;;;;;;;;3.33;1.00;;;;;14.15;100.00;101438.47;5063330;28;45424;-74
2023/01/07 00:57:27;;;;;;;;;2.00;2.00;;;;;14.13;100.00;101430.50;5058731;28;45254;-74
2023/01/07 00:59:53;;;;;;;;;2.33;2.00;;;;;14.15;100.00;101430.50;5058087;28;55125;-74
2023/01/07 01:02:18;;;;;;;;;1.00;1.00;;;;;14.16;100.00;101435.81;5058147;28;57693;-74
2023/01/07 01:04:43;;;;;;;;;1.00;1.00;;;;;14.14;100.00;101426.97;5047726;28;47527;-74
2023/01/07 01:07:09;;;;;;;;;4.00;1.00;;;;;14.13;100.00;101417.22;5062311;28;53817;-74
2023/01/07 01:09:34;;;;;;;;;2.00;2.00;;;;;14.12;100.00;101417.22;5058225;28;46434;-74
2023/01/07 01:11:59;;;;;;;;;1.67;1.67;;;;;14.13;100.00;101417.22;5054376;28;61216;-75
2023/01/07 01:14:25;;;;;;;;;2.00;2.00;;;;;14.11;100.00;101415.41;5055537;28;57432;-74
2023/01/07 01:16:50;;;;;;;;;2.00;1.00;;;;;14.12;100.00;101418.09;5056304;28;45365;-74
2023/01/07 01:19:16;;;;;;;;;1.33;1.33;;;;;14.12;100.00;101412.81;5060982;28;45367;-75
2023/01/07 01:21:41;;;;;;;;;2.00;2.00;;;;;14.10;100.00;101406.56;5057904;28;53475;-73
2023/01/07 01:24:06;;;;;;;;;3.00;2.00;;;;;14.07;100.00;101400.38;5057807;28;58380;-75
2023/01/07 01:26:32;;;;;;;;;1.00;1.00;;;;;14.08;100.00;101397.72;5058006;28;45298;-75
2023/01/07 01:28:57;;;;;;;;;1.00;1.00;;;;;14.07;100.00;101395.94;5057833;28;52585;-74
2023/01/07 01:31:22;;;;;;;;;1.33;1.33;;;;;14.10;100.00;101398.59;5065948;28;45867;-76
2023/01/07 01:33:48;;;;;;;;;1.00;1.00;;;;;14.09;100.00;101391.53;5056518;28;54008;-74
2023/01/07 01:36:13;;;;;;;;;1.67;1.00;;;;;14.09;100.00;101388.88;5064817;28;56096;-74
2023/01/07 01:38:39;;;;;;;;;1.00;1.00;;;;;14.11;100.00;101380.91;5058223;28;45882;-75
2023/01/07 01:41:05;;;;;;;;;1.00;1.00;;;;;14.08;100.00;101384.44;5053432;28;45736;-74
2023/01/07 01:43:35;;;;;;;;;2.00;0.33;;;;;14.11;100.00;101384.47;5066219;28;45770;-73
2023/01/07 01:46:09;;;;;;;;;1.00;1.00;;;;;14.08;100.00;101379.13;5056944;28;45276;-74
2023/01/07 01:48:35;;;;;;;;;1.00;1.00;;;;;14.10;100.00;101376.47;5057818;28;45314;-74
2023/01/07 01:51:01;;;;;;;;;0.33;0.33;;;;;14.10;100.00;101377.34;5056827;28;45774;-74
2023/01/07 01:53:30;;;;;;;;;1.33;0.00;;;;;14.12;100.00;101377.38;5039877;28;45340;-74
2023/01/07 01:55:58;;;;;;;;;1.67;1.00;;;;;14.10;100.00;101361.41;5050030;28;45356;-74
2023/01/07 01:58:34;;;;;;;;;1.67;0.67;;;;;14.11;100.00;101357.00;5058019;28;45635;-74
2023/01/07 02:00:59;;;;;;;;;1.00;1.00;;;;;14.12;100.00;101356.16;5047343;28;46607;-74
2023/01/07 02:03:26;;;;;;;;;1.00;1.00;;;;;14.13;100.00;101360.56;5066890;28;59438;-73
2023/01/07 02:05:52;;;;;;;;;1.33;1.00;;;;;14.12;100.00;101357.03;5040883;28;45241;-75
2023/01/07 02:08:20;;;;;;;;;0.00;0.00;;;;;14.11;100.00;101347.28;5055747;28;51356;-73
2023/01/07 02:10:47;;;;;;;;;3.00;1.33;;;;;14.11;100.00;101352.59;5056127;28;46054;-74
2023/01/07 02:13:28;;;;;;;;;1.00;1.00;;;;;14.11;100.00;101355.25;5053640;28;45447;-75
2023/01/07 02:16:12;;;;;;;;;1.33;1.00;;;;;14.09;100.00;101353.47;5057988;28;45371;-74
2023/01/07 02:18:56;;;;;;;;;2.67;0.67;;;;;14.10;100.00;101348.16;5045834;28;45666;-75
2023/01/07 02:21:39;;;;;;;;;0.67;0.33;;;;;14.09;100.00;101340.19;5057227;28;46638;-74
2023/01/07 02:24:14;;;;;;;;;1.00;1.00;;;;;14.10;100.00;101341.94;5058797;28;45596;-74
2023/01/07 02:26:48;;;;;;;;;2.00;1.00;;;;;14.10;100.00;101340.19;5057107;28;45388;-74
2023/01/07 02:29:50;;;;;;;;;0.00;0.00;;;;;14.12;100.00;101342.88;5069788;28;45502;-75
2023/01/07 02:32:37;;;;;;;;;1.00;1.00;;;;;14.11;100.00;101336.66;5051018;28;45752;-73
2023/01/07 02:35:10;;;;;;;;;0.00;0.00;;;;;14.08;100.00;101326.03;5057135;28;45428;-75
2023/01/07 02:37:50;;;;;;;;;1.00;1.00;;;;;14.10;100.00;101326.03;5057304;28;45325;-75
2023/01/07 02:40:23;;;;;;;;;2.00;0.67;;;;;14.07;100.00;101323.38;5069749;28;45342;-74
2023/01/07 02:42:57;;;;;;;;;1.00;1.00;;;;;14.05;100.00;101326.00;5057201;28;46804;-73
2023/01/07 02:45:27;;;;;;;;;2.00;1.00;;;;;14.05;100.00;101317.13;5056793;28;45266;-75
2023/01/07 02:47:56;;;;;;;;;1.00;1.00;;;;;14.08;100.00;101310.09;5056079;28;45315;-75
2023/01/07 02:50:21;;;;;;;;;1.00;1.00;;;;;14.07;100.00;101310.09;5039094;28;45514;-74
2023/01/07 02:52:46;;;;;;;;;2.00;0.67;;;;;14.07;100.00;101304.78;5066848;28;46591;-74
2023/01/07 02:55:21;;;;;;;;;1.00;1.00;;;;;14.06;100.00;101309.22;5061266;28;45437;-74
2023/01/07 02:57:47;;;;;;;;;1.00;1.00;;;;;14.06;100.00;101297.66;5055829;28;45244;-75
2023/01/07 03:00:35;;;;;;;;;0.33;0.33;;;;;14.05;100.00;101299.44;5057110;28;45370;-74
2023/01/07 03:03:25;;;;;;;;;0.33;0.33;;;;;14.04;100.00;101289.72;5050908;28;45234;-74
2023/01/07 03:06:11;;;;;;;;;1.00;1.00;;;;;14.05;100.00;101283.50;5055255;28;45477;-74
2023/01/07 03:09:10;;;;;;;;;1.00;1.00;;;;;14.06;100.00;101284.41;5038411;28;45428;-75
2023/01/07 03:11:51;;;;;;;;;1.00;1.00;;;;;14.03;100.00;101276.44;5026052;28;45475;-74
2023/01/07 03:14:19;;;;;;;;;1.00;1.00;;;;;14.01;100.00;101276.44;5063449;28;46059;-73
2023/01/07 03:16:57;;;;;;;;;1.00;1.00;;;;;14.01;100.00;101281.75;5055377;28;45403;-74
2023/01/07 03:19:31;;;;;;;;;0.00;0.00;;;;;14.01;100.00;101265.81;5038678;28;45398;-74
2023/01/07 03:21:58;;;;;;;;;2.00;1.00;;;;;14.00;100.00;101258.69;5038760;28;45530;-74
2023/01/07 03:24:25;;;;;;;;;1.00;1.00;;;;;14.02;100.00;101259.63;5039197;28;46895;-75
2023/01/07 03:26:53;;;;;;;;;1.00;1.00;;;;;14.00;100.00;101245.44;5037357;28;45253;-74
2023/01/07 03:29:19;;;;;;;;;1.67;1.00;;;;;14.03;100.00;101244.56;5052135;28;45521;-75
2023/01/07 03:31:59;;;;;;;;;1.33;1.33;;;;;14.01;100.00;101251.63;5054941;28;50560;-74
2023/01/07 03:34:26;;;;;;;;;1.00;0.33;;;;;14.00;100.00;101237.47;5054937;28;46529;-73
2023/01/07 03:36:56;;;;;;;;;0.00;0.00;;;;;13.99;100.00;101235.69;5055464;28;45562;-73
2023/01/07 03:39:23;;;;;;;;;0.33;0.00;;;;;14.01;100.00;101233.97;5053959;28;45317;-74
2023/01/07 03:44:33;;;;;;;;;0.00;0.00;;;;;14.00;100.00;101220.66;5056178;28;47822;-74
2023/01/07 03:46:59;;;;;;;;;1.00;0.00;;;;;14.01;100.00;101226.00;5043916;28;45305;-74
2023/01/07 03:49:24;;;;;;;;;3.33;0.33;;;;;14.02;100.00;101222.44;5037384;28;55522;-74
2023/01/07 03:51:51;;;;;;;;;0.33;0.33;;;;;14.04;100.00;101210.03;5055821;28;48797;-75
2023/01/07 03:54:16;;;;;;;;;0.00;0.00;;;;;13.98;100.00;101196.75;5056165;28;46707;-74
2023/01/07 03:56:42;;;;;;;;;2.00;0.00;;;;;14.00;100.00;101199.41;5055002;28;45356;-74
2023/01/07 03:59:07;;;;;;;;;2.00;0.00;;;;;14.03;100.00;101204.75;5056154;28;45509;-73
2023/01/07 04:01:33;;;;;;;;;1.00;0.00;;;;;14.02;100.00;101200.31;5031654;28;45250;-73
2023/01/07 04:03:58;;;;;;;;;0.67;0.67;;;;;14.01;100.00;101188.81;5056275;28;45912;-74
2023/01/07 04:06:23;;;;;;;;;1.00;1.00;;;;;14.04;100.00;101188.81;5055240;28;58400;-74
2023/01/07 04:08:49;;;;;;;;;0.00;0.00;;;;;14.04;100.00;101180.84;5055615;28;52334;-74
2023/01/07 04:11:14;;;;;;;;;0.00;0.00;;;;;14.04;100.00;101178.19;5054756;28;45519;-73
2023/01/07 04:13:39;;;;;;;;;0.00;0.00;;;;;14.06;100.00;101178.19;5055767;28;45632;-74
2023/01/07 04:16:05;;;;;;;;;0.00;0.00;;;;;14.05;100.00;101169.34;5055278;28;55827;-74
2023/01/07 04:18:30;;;;;;;;;0.00;0.00;;;;;14.06;100.00;101162.25;5050421;28;45495;-75
2023/01/07 04:20:55;;;;;;;;;1.00;1.00;;;;;14.03;100.00;101151.63;5051206;28;48373;-74
2023/01/07 04:23:21;;;;;;;;;0.00;0.00;;;;;14.04;100.00;101153.41;5061473;28;61499;-73
2023/01/07 04:25:47;;;;;;;;;0.00;0.00;;;;;14.02;100.00;101137.47;5054967;28;53391;-76
2023/01/07 04:28:13;;;;;;;;;0.33;0.33;;;;;14.02;100.00;101131.28;5037468;28;45476;-74
2023/01/07 04:30:38;;;;;;;;;0.00;0.00;;;;;14.00;100.00;101125.06;5054793;28;45497;-75
2023/01/07 04:33:04;;;;;;;;;0.00;0.00;;;;;14.01;100.00;101132.16;5053755;28;62052;-74
2023/01/07 04:35:30;;;;;;;;;0.00;0.00;;;;;13.98;100.00;101117.13;5055202;28;45347;-74
2023/01/07 04:37:56;;;;;;;;;1.00;1.00;;;;;13.93;100.00;101116.22;5056467;28;45288;-75
2023/01/07 04:40:21;;;;;;;;;0.00;0.00;;;;;13.83;100.00;101101.16;5059368;28;45544;-75
2023/01/07 04:42:46;;;;;;;;;0.00;0.00;;;;;13.80;100.00;101112.66;5058474;28;46593;-75
2023/01/07 04:45:12;;;;;;;;;0.33;0.33;;;;;13.73;100.00;101086.09;5058301;28;60893;-75
2023/01/07 04:47:37;;;;;;;;;0.00;0.00;;;;;13.68;100.00;101093.16;5058501;28;54468;-76
2023/01/07 04:50:03;;;;;;;;;1.00;0.00;;;;;13.63;100.00;101078.13;5061285;28;52431;-74
2023/01/07 04:52:29;;;;;;;;;1.00;1.00;;;;;13.56;100.00;101073.66;5059632;28;45996;-74
2023/01/07 04:54:54;;;;;;;;;1.00;1.00;;;;;13.51;100.00;101072.78;5058297;28;59391;-75
2023/01/07 04:57:19;;;;;;;;;1.00;1.00;;;;;13.47;100.00;101064.78;5058299;28;52735;-74
2023/01/07 04:59:44;;;;;;;;;0.00;0.00;;;;;13.41;100.00;101064.78;5058371;28;51697;-74
2023/01/07 05:02:10;;;;;;;;;0.00;0.00;;;;;13.35;100.00;101061.22;5057769;28;60203;-74
2023/01/07 05:04:35;;;;;;;;;2.00;0.00;;;;;13.31;100.00;101051.47;5058275;28;54909;-74
2023/01/07 05:07:01;;;;;;;;;2.00;0.00;;;;;13.29;100.00;101047.06;5057001;28;53085;-73
2023/01/07 05:09:26;;;;;;;;;2.00;1.00;;;;;13.25;100.00;101042.63;5057927;28;50749;-74
2023/01/07 05:11:51;;;;;;;;;0.00;0.00;;;;;13.23;100.00;101049.72;5061271;28;46341;-76
2023/01/07 05:14:17;;;;;;;;;0.00;0.00;;;;;13.15;100.00;101039.03;5058503;28;45461;-74
2023/01/07 05:16:42;;;;;;;;;0.00;0.00;;;;;13.11;100.00;101040.78;5057368;28;45436;-74
2023/01/07 05:19:08;;;;;;;;;0.00;0.00;;;;;13.06;100.00;101031.94;5058530;28;51409;-74
2023/01/07 05:21:34;;;;;;;;;1.67;0.00;;;;;13.04;100.00;101038.97;5055452;28;46516;-75
2023/01/07 05:23:59;;;;;;;;;1.67;1.00;;;;;13.01;100.00;101038.97;5072811;28;58916;-74
2023/01/07 05:26:25;;;;;;;;;0.00;0.00;;;;;12.96;100.00;101024.81;5041111;28;49942;-74
2023/01/07 05:28:50;;;;;;;;;1.00;1.00;;;;;12.97;100.00;101037.19;5058553;28;45634;-74
2023/01/07 05:31:15;;;;;;;;;1.00;1.00;;;;;12.96;100.00;101031.88;5068506;28;59230;-74
2023/01/07 05:33:40;;;;;;;;;2.00;1.00;;;;;12.93;100.00;101030.09;5059342;28;59027;-75
2023/01/07 05:36:06;;;;;;;;;1.00;1.00;;;;;12.91;100.00;101026.56;5056623;28;51880;-74
2023/01/07 05:38:31;;;;;;;;;2.00;1.00;;;;;12.90;100.00;101019.50;5058151;28;45405;-73
2023/01/07 05:40:57;;;;;;;;;1.00;1.00;;;;;12.88;100.00;101017.69;5056390;28;62931;-74
2023/01/07 05:43:22;;;;;;;;;2.00;2.00;;;;;12.80;100.00;101009.72;5057283;28;59448;-73
2023/01/07 05:45:47;;;;;;;;;2.00;2.00;;;;;12.77;100.00;101009.72;5057312;28;54788;-75
2023/01/07 05:48:13;;;;;;;;;1.00;1.00;;;;;12.75;100.00;101015.00;5056461;28;54051;-73
2023/01/07 05:50:38;;;;;;;;;1.00;1.00;;;;;12.71;100.00;101009.69;5055231;28;45852;-76
2023/01/07 05:53:04;;;;;;;;;2.67;2.67;;;;;12.70;100.00;101007.91;5057307;28;55156;-75
2023/01/07 05:55:29;;;;;;;;;2.00;2.00;;;;;12.65;100.00;101012.31;5056999;28;54154;-74
2023/01/07 05:57:55;;;;;;;;;2.00;2.00;;;;;12.65;100.00;101014.94;5057483;28;53279;-75
2023/01/07 06:00:20;;;;;;;;;2.33;2.00;;;;;12.63;100.00;101022.91;5058579;28;54893;-73
2023/01/07 06:02:45;;;;;;;;;3.00;3.00;;;;;12.58;100.00;101017.56;5040017;28;45430;-73
2023/01/07 06:05:11;;;;;;;;;3.00;3.00;;;;;12.57;100.00;101026.41;5055649;28;53609;-73
2023/01/07 06:07:36;;;;;;;;;2.00;2.00;;;;;12.54;100.00;101015.78;5057517;28;45343;-74
2023/01/07 06:10:02;;;;;;;;;3.00;1.33;;;;;12.51;100.00;101020.16;5056337;28;57137;-75
2023/01/07 06:12:27;;;;;;;;;1.67;1.67;;;;;12.47;100.00;101019.28;5057405;28;45427;-74
2023/01/07 06:14:52;;;;;;;;;1.67;1.67;;;;;12.46;100.00;101020.13;5059748;28;54055;-75
2023/01/07 06:17:18;;;;;;;;;4.00;2.00;;;;;12.47;100.00;101021.03;5056984;28;51267;-74
2023/01/07 06:19:43;;;;;;;;;3.67;2.67;;;;;12.45;100.00;101020.13;5037842;28;48336;-74
2023/01/07 06:22:08;;;;;;;;;2.00;2.00;;;;;12.44;100.00;101008.66;5056023;28;55812;-74
2023/01/07 06:24:34;;;;;;;;;3.00;1.67;;;;;12.41;100.00;101007.72;5060981;28;48937;-74
2023/01/07 06:26:59;;;;;;;;;1.67;1.67;;;;;12.43;100.00;101013.94;5063913;28;45225;-74
2023/01/07 06:29:24;;;;;;;;;3.00;3.00;;;;;12.41;100.00;101007.72;5057005;28;46301;-74
2023/01/07 06:31:50;;;;;;;;;3.00;3.00;;;;;12.38;100.00;101003.31;5057062;28;59973;-73
2023/01/07 06:34:15;;;;;;;;;2.00;2.00;;;;;12.39;100.00;101014.78;5059964;28;45483;-74
2023/01/07 06:36:40;;;;;;;;;2.00;2.00;;;;;12.34;100.00;101004.16;5055995;28;45411;-74
2023/01/07 06:39:06;;;;;;;;;2.67;2.00;;;;;12.35;100.00;100997.09;5056555;28;60340;-73
2023/01/07 06:41:31;;;;;;;;;3.33;2.33;;;;;12.36;100.00;101004.16;5056770;28;54882;-74
2023/01/07 06:43:56;;;;;;;;;1.67;1.33;;;;;12.32;100.00;101001.53;5069271;28;53578;-74
2023/01/07 06:46:22;;;;;;;;;2.00;2.00;;;;;12.27;100.00;100990.00;5039007;28;45527;-75
2023/01/07 06:48:47;;;;;;;;;4.67;2.00;;;;;12.26;100.00;100997.94;5038420;28;47511;-73
2023/01/07 06:51:12;;;;;;;;;1.67;1.67;;;;;12.28;100.00;100998.84;5057151;28;45460;-73
2023/01/07 06:53:38;;;;;;;;;2.00;2.00;;;;;12.38;100.00;100999.78;5056576;28;50688;-73
2023/01/07 06:56:03;;;;;;;;;2.33;2.00;;;;;12.43;100.00;100991.00;5056980;28;45341;-73
2023/01/07 06:58:29;;;;;;;;;3.00;2.00;;;;;12.46;100.00;100975.09;5056803;28;46438;-72
2023/01/07 07:00:54;;;;;;;;;2.00;2.00;;;;;12.51;100.00;100976.00;5055957;28;59383;-75
2023/01/07 07:03:19;;;;;;;;;2.00;2.00;;;;;12.54;100.00;100961.91;5047762;28;45639;-75
2023/01/07 07:05:45;;;;;;;;;8.00;3.00;;;;;12.55;100.00;100963.69;5042438;28;47583;-74
2023/01/07 07:08:11;;;;;;;;;1.00;1.00;;;;;12.62;100.00;100970.78;5055056;28;45525;-76
2023/01/07 07:10:36;;;;;;;;;2.00;2.00;;;;;12.64;100.00;100976.09;5056086;28;59194;-73
2023/01/07 07:13:01;;;;;;;;;1.00;1.00;;;;;12.63;100.00;100971.69;5045179;28;45552;-72
2023/01/07 07:15:27;;;;;;;;;1.67;1.67;;;;;12.64;100.00;100971.69;5050606;28;45364;-73
2023/01/07 07:17:52;;;;;;;;;2.00;2.00;;;;;12.64;100.00;100955.78;5055896;28;46047;-75
2023/01/07 07:20:17;;;;;;;;;1.67;1.67;;;;;12.66;100.00;100967.25;5048105;28;45400;-75
2023/01/07 07:22:47;;;;;;;;;3.33;1.67;;;;;12.63;100.00;100969.91;5061706;28;57660;-75
2023/01/07 07:25:13;;;;;;;;;3.00;1.00;;;;;12.64;100.00;100963.72;5038880;28;45491;-74
2023/01/07 07:27:38;;;;;;;;;2.33;2.33;;;;;12.61;100.00;100953.13;5059934;28;46542;-73
2023/01/07 07:30:04;;;;;;;;;2.00;2.00;;;;;12.57;100.00;100948.69;5056017;28;60123;-74
2023/01/07 07:32:30;;;;;;;;;1.00;1.00;;;;;12.50;100.00;100942.47;5054199;28;45377;-76
2023/01/07 07:34:55;;;;;;;;;3.67;2.67;;;;;12.47;100.00;100945.13;5065212;28;54676;-73
2023/01/07 07:37:21;;;;;;;;;1.00;1.00;;;;;12.44;100.00;100937.16;5046473;28;45577;-74
2023/01/07 07:39:46;;;;;;;;;3.00;3.00;;;;;12.40;100.00;100937.13;5055631;28;45422;-73
2023/01/07 07:42:12;;;;;;;;;2.00;2.00;;;;;12.36;100.00;100937.97;5054949;28;53502;-74
2023/01/07 07:44:37;;;;;;;;;3.00;2.00;;;;;12.36;100.00;100938.88;5056696;28;51889;-74
2023/01/07 07:47:02;;;;;;;;;2.00;2.00;;;;;12.30;100.00;100936.19;5055433;28;61456;-73
2023/01/07 07:49:28;;;;;;;;;0.67;0.67;;;;;12.27;100.00;100925.59;5037691;28;49456;-74
2023/01/07 07:51:53;;;;;;;;;3.00;1.67;;;;;12.20;100.00;100923.78;5059825;28;51738;-74
2023/01/07 07:54:18;;;;;;;;;3.00;2.67;;;;;12.18;100.00;100930.81;5055901;28;45676;-72
2023/01/07 07:56:44;;;;;;;;;2.00;2.00;;;;;12.18;100.00;100923.75;5055733;28;46507;-74
2023/01/07 07:59:09;;;;;;;;;3.00;3.00;;;;;12.13;100.00;100932.56;5055377;28;54484;-73
2023/01/07 08:01:34;;;;;;;;;2.33;2.33;;;;;12.13;100.00;100921.97;5058285;28;48690;-73
2023/01/07 08:04:00;;;;;;;;;4.33;2.00;;;;;12.10;100.00;100921.97;5056806;28;51694;-75
2023/01/07 08:06:25;;;;;;;;;3.00;2.00;;;;;12.06;100.00;100924.56;5036758;28;46267;-73
2023/01/07 08:08:50;;;;;;;;;3.33;2.00;;;;;12.05;100.00;100919.28;5056388;28;59914;-73
2023/01/07 08:11:16;;;;;;;;;5.00;2.00;;;;;12.06;100.00;100931.63;5055482;28;50167;-73
2023/01/07 08:13:41;;;;;;;;;2.00;2.00;;;;;12.05;100.00;100929.88;5057404;28;45530;-75
2023/01/07 08:16:07;;;;;;;;;3.00;2.00;;;;;12.05;100.00;100921.94;5059976;28;60328;-73
2023/01/07 08:18:32;;;;;;;;;2.00;2.00;;;;;12.06;100.00;100926.34;5062751;28;45221;-74
2023/01/07 08:20:57;;;;;;;;;3.00;3.00;;;;;12.06;100.00;100926.34;5058954;28;52681;-73
2023/01/07 08:23:23;;;;;;;;;4.33;3.33;;;;;12.05;100.00;100932.50;5044536;28;45972;-73
2023/01/07 08:25:48;;;;;;;;;4.00;2.00;;;;;12.05;100.00;100919.28;5056849;28;46348;-74
2023/01/07 08:28:13;;;;;;;;;3.67;2.00;;;;;12.01;100.00;100913.06;5037671;28;45995;-76
2023/01/07 08:30:39;;;;;;;;;4.00;3.00;;;;;12.05;100.00;100900.75;5036287;28;58296;-73
2023/01/07 08:33:06;;;;;;;;;4.00;2.33;;;;;12.05;100.00;100900.75;5065621;28;45424;-72
2023/01/07 08:35:32;;;;;;;;;1.67;1.33;;;;;12.06;100.00;100895.47;5040603;28;45869;-73
2023/01/07 08:38:02;;;;;;;;;3.33;2.00;;;;;12.09;100.00;100888.41;5058695;28;45443;-72
2023/01/07 08:40:28;;;;;;;;;3.33;2.00;;;;;12.07;100.00;100876.06;5063535;28;45460;-74
2023/01/07 08:42:57;;;;;;;;;2.00;2.00;;;;;12.12;100.00;100891.09;5063938;28;45347;-74
2023/01/07 08:45:22;;;;;;;;;3.33;2.00;;;;;12.13;100.00;100874.31;5062027;28;46536;-72
2023/01/07 08:47:47;;;;;;;;;2.33;2.33;;;;;12.14;100.00;100871.66;5055880;28;57363;-74
2023/01/07 08:50:13;;;;;;;;;2.00;2.00;;;;;12.11;100.00;100858.44;5035257;28;45399;-74
2023/01/07 08:52:39;;;;;;;;;2.00;2.00;;;;;12.13;100.00;100861.97;5049095;28;45477;-74
2023/01/07 08:55:05;;;;;;;;;2.33;2.33;;;;;12.14;100.00;100863.72;5057571;28;46552;-72
2023/01/07 08:57:30;;;;;;;;;4.00;2.00;;;;;12.19;100.00;100855.81;5060602;28;45493;-73
2023/01/07 08:59:56;;;;;;;;;2.00;2.00;;;;;12.20;100.00;100860.25;5058803;28;45349;-72
2023/01/07 09:02:21;;;;;;;;;3.00;2.00;;;;;12.23;100.00;100847.91;5054871;28;45508;-72
2023/01/07 09:04:46;;;;;;;;;2.00;2.00;;;;;12.25;100.00;100848.81;5064204;28;46163;-73
2023/01/07 09:07:12;;;;;;;;;2.67;2.67;;;;;12.26;100.00;100833.81;5058515;27;45713;-73
2023/01/07 09:09:37;;;;;;;;;3.33;2.67;;;;;12.28;100.00;100829.38;5072747;27;45416;-74
2023/01/07 09:12:04;;;;;;;;;3.00;3.00;;;;;12.26;100.00;100829.41;5056171;27;45502;-74
2023/01/07 09:14:30;;;;;;;;;3.00;3.00;;;;;12.20;100.00;100812.63;5057897;28;46440;-80
2023/01/07 09:16:55;;;;;;;;;2.00;2.00;;;;;12.18;100.00;100809.06;5059001;27;45627;-73
2023/01/07 09:19:21;;;;;;;;;2.00;2.00;;;;;12.17;100.00;100808.19;5077361;27;46605;-75
2023/01/07 09:21:46;;;;;;;;;3.67;2.33;;;;;12.21;100.00;100809.09;5060041;28;53023;-74
2023/01/07 09:24:12;;;;;;;;;5.00;3.67;;;;;12.21;100.00;100798.50;5068691;27;58574;-73
2023/01/07 09:26:37;;;;;;;;;3.00;3.00;;;;;12.22;100.00;100798.50;5073541;27;46583;-72
2023/01/07 09:29:02;;;;;;;;;3.00;3.00;;;;;12.26;100.00;100799.41;5086271;27;45503;-72
2023/01/07 09:31:28;;;;;;;;;3.00;3.00;;;;;12.28;100.00;100792.34;5080517;27;45451;-72
2023/01/07 09:33:53;;;;;;;;;2.00;2.00;;;;;12.33;100.00;100786.16;5080414;27;55450;-72
2023/01/07 09:36:18;;;;;;;;;4.67;3.00;;;;;12.35;100.00;100778.22;5078534;27;45496;-72
2023/01/07 09:38:44;;;;;;;;;3.00;2.67;;;;;12.36;100.00;100768.50;5075766;28;45472;-72
2023/01/07 09:41:55;;;;;;;;;3.00;3.00;;;;;12.42;100.00;100764.13;5078411;28;45444;-73
2023/01/07 09:44:43;;;;;;;;;3.00;3.00;;;;;12.46;100.00;100763.25;5054497;28;47487;-72
2023/01/07 09:47:11;;;;;;;;;7.33;4.00;;;;;12.51;100.00;100752.66;5074694;28;45363;-72
2023/01/07 09:49:36;;;;;;;;;5.33;2.33;;;;;12.54;100.00;100753.56;5060867;28;45502;-72
2023/01/07 09:52:14;;;;;;;;;2.67;2.67;;;;;12.57;100.00;100758.88;5056477;28;55308;-72
2023/01/07 09:54:40;;;;;;;;;4.00;3.00;;;;;12.57;100.00;100750.94;5077194;28;46484;-72
2023/01/07 09:57:05;;;;;;;;;3.33;2.67;;;;;12.59;100.00;100751.81;5059453;28;45457;-72
2023/01/07 09:59:30;;;;;;;;;3.00;3.00;;;;;12.64;100.00;100753.59;5082870;27;54455;-72
2023/01/07 10:02:10;;;;;;;;;2.33;2.33;;;;;12.64;100.00;100749.16;5078112;28;45441;-73
2023/01/07 10:04:50;;;;;;;;;3.00;3.00;;;;;12.67;100.00;100759.75;5079507;27;45641;-74
2023/01/07 10:07:23;;;;;;;;;1.33;1.33;;;;;12.66;100.00;100757.09;5061541;28;45525;-71
2023/01/07 10:09:51;;;;;;;;;4.33;3.00;;;;;12.69;100.00;100746.53;5079893;27;45420;-74
2023/01/07 10:12:22;;;;;;;;;2.33;2.33;;;;;12.69;100.00;100752.69;5081692;27;45524;-75
2023/01/07 10:15:32;;;;;;;;;2.00;2.00;;;;;12.70;100.00;100743.00;5069883;28;46970;-74
2023/01/07 10:18:13;;;;;;;;;2.00;2.00;;;;;12.74;100.00;100747.41;5064093;27;45617;-74
2023/01/07 10:21:19;;;;;;;;;4.00;2.00;;;;;12.78;100.00;100731.53;5077323;27;45200;-73
2023/01/07 10:23:49;;;;;;;;;1.67;1.67;;;;;12.87;100.00;100733.28;5076643;27;45512;-74
2023/01/07 10:26:38;;;;;;;;;3.00;3.00;;;;;12.93;100.00;100733.25;5207651;22;46509;-75
2023/01/07 10:29:09;;;;;;;;;3.33;2.00;;;;;12.96;100.00;100733.28;5055116;28;45308;-73
2023/01/07 10:31:35;;;;;;;;;3.67;2.00;;;;;13.02;100.00;100722.66;5042603;28;45454;-74
2023/01/07 10:34:01;;;;;;;;;0.00;0.00;;;;;13.01;100.00;100717.38;5058793;28;56176;-74
2023/01/07 10:36:33;;;;;;;;;3.00;3.00;;;;;13.03;100.00;100711.19;5058740;28;47122;-73
2023/01/07 10:39:17;;;;;;;;;2.67;2.00;;;;;13.03;100.00;100708.53;5058880;28;45537;-74
2023/01/07 10:42:04;;;;;;;;;4.67;3.00;;;;;13.02;100.00;100706.75;5076739;28;45333;-74
2023/01/07 10:44:36;;;;;;;;;3.33;2.33;;;;;13.02;100.00;100709.41;5075686;28;45394;-74
2023/01/07 10:47:14;;;;;;;;;2.67;2.67;;;;;13.06;100.00;100705.88;5058575;28;46411;-73
2023/01/07 10:49:55;;;;;;;;;3.67;2.67;;;;;13.13;100.00;100697.91;5077558;28;45421;-75
2023/01/07 10:53:02;;;;;;;;;2.00;2.00;;;;;13.18;100.00;100691.72;5059304;28;45239;-74
2023/01/07 10:55:27;;;;;;;;;1.00;1.00;;;;;13.24;100.00;100678.47;5014606;28;45353;-74
2023/01/07 10:57:53;;;;;;;;;3.67;2.00;;;;;13.25;100.00;100666.09;5076788;28;45678;-75
2023/01/07 11:00:18;;;;;;;;;3.00;3.00;;;;;13.31;100.00;100672.25;5076791;28;45481;-73
2023/01/07 11:02:49;;;;;;;;;3.67;2.00;;;;;13.32;100.00;100667.88;5058689;28;45474;-74
2023/01/07 11:05:19;;;;;;;;;5.00;3.00;;;;;13.31;100.00;100666.09;5058998;28;45419;-74
2023/01/07 11:07:45;;;;;;;;;2.00;2.00;;;;;13.35;100.00;100662.53;5058537;28;46959;-74
2023/01/07 11:10:20;;;;;;;;;4.00;3.00;;;;;13.42;100.00;100648.34;5076582;28;45462;-75
2023/01/07 11:12:48;;;;;;;;;3.00;3.00;;;;;13.51;100.00;100640.38;5076491;28;45425;-75
2023/01/07 11:15:19;;;;;;;;;1.67;1.67;;;;;13.61;100.00;100644.75;5074801;28;45617;-74
2023/01/07 11:17:47;;;;;;;;;2.00;2.00;;;;;13.70;100.00;100649.16;5075854;28;45952;-74
2023/01/07 11:20:12;;;;;;;;;2.33;2.33;;;;;13.78;100.00;100636.72;5071961;28;46809;-74
2023/01/07 11:22:38;;;;;;;;;2.33;2.00;;;;;13.88;100.00;100640.19;5075040;28;45510;-74
2023/01/07 11:25:22;;;;;;;;;3.00;3.00;;;;;13.94;100.00;100626.88;5072287;28;46032;-74